Time;durP1;ratioP1;P1;durP2;ratioP2;P2;SDS_P1;SDS_P2;PMS_P1;PMS_P2;Temp;Humidity;BMP_temperature;BMP_pressure;BME280_temperature;BME280_humidity;BME280_pressure;Samples;Min_cycle;Max_cycle;Signal;HPM_P1;HPM_P2
2021/04/15 00:02:14;;;;;;;7.93;2.08;;;27.40;92.40;;;;;;5086485;28;20020;-45
2021/04/15 00:04:42;;;;;;;3.08;2.00;;;27.40;92.30;;;;;;5105048;28;20028;-44
2021/04/15 00:07:09;;;;;;;3.45;1.88;;;27.50;92.30;;;;;;5070065;28;20028;-52
2021/04/15 00:09:35;;;;;;;4.93;1.73;;;27.50;92.30;;;;;;5086313;28;20027;-49
2021/04/15 00:12:02;;;;;;;5.07;2.03;;;27.50;92.20;;;;;;5104060;28;20351;-48
2021/04/15 00:14:29;;;;;;;2.85;1.55;;;27.60;92.20;;;;;;5103911;28;20062;-47
2021/04/15 00:16:55;;;;;;;4.93;1.60;;;27.60;92.20;;;;;;5085910;28;20228;-48
2021/04/15 00:19:22;;;;;;;3.40;1.70;;;27.60;92.00;;;;;;5059450;28;20365;-47
2021/04/15 00:21:51;;;;;;;3.78;1.70;;;27.50;92.00;;;;;;5063794;28;20048;-47
2021/04/15 00:24:17;;;;;;;1.92;1.30;;;27.60;92.00;;;;;;5064225;28;20065;-45
2021/04/15 00:26:45;;;;;;;3.53;1.40;;;27.60;91.80;;;;;;5063886;28;20210;-46
2021/04/15 00:29:26;;;;;;;5.55;1.50;;;27.60;91.80;;;;;;5062754;28;20305;-47
2021/04/15 00:31:56;;;;;;;5.03;1.30;;;27.60;91.70;;;;;;5063713;28;20383;-46
2021/04/15 00:34:27;;;;;;;1.60;1.10;;;27.60;91.60;;;;;;5062657;28;20183;-45
2021/04/15 00:36:54;;;;;;;4.05;1.60;;;27.60;91.50;;;;;;5062689;28;20233;-44
2021/04/15 00:39:22;;;;;;;3.58;1.50;;;27.50;91.60;;;;;;5064070;28;20021;-49
2021/04/15 00:41:49;;;;;;;5.88;2.58;;;27.50;91.60;;;;;;5062397;28;20021;-44
2021/04/15 00:44:16;;;;;;;6.93;5.68;;;27.60;91.60;;;;;;5063875;28;20028;-44
2021/04/15 00:46:45;;;;;;;7.97;4.05;;;27.50;91.80;;;;;;5063396;28;20050;-45
2021/04/15 00:49:21;;;;;;;5.63;3.80;;;27.50;91.90;;;;;;5063840;28;20021;-48
2021/04/15 00:51:51;;;;;;;5.45;2.92;;;27.50;91.90;;;;;;5063711;28;20221;-47
2021/04/15 00:55:02;;;;;;;14.55;4.35;;;27.50;92.10;;;;;;5063395;28;20033;-49
2021/04/15 00:57:35;;;;;;;13.25;4.40;;;27.40;92.60;;;;;;5054714;28;20040;-53
2021/04/15 01:00:03;;;;;;;10.38;3.65;;;27.40;92.60;;;;;;5056970;28;20049;-46
2021/04/15 01:02:33;;;;;;;11.02;3.47;;;27.30;92.70;;;;;;5043067;28;20071;-47
2021/04/15 01:05:06;;;;;;;8.88;2.70;;;27.30;92.60;;;;;;5043842;28;20025;-50
2021/04/15 01:07:34;;;;;;;7.68;2.13;;;27.30;92.50;;;;;;5042562;28;20218;-49
2021/04/15 01:10:01;;;;;;;11.13;2.45;;;27.30;92.40;;;;;;5042738;28;20040;-50
2021/04/15 01:12:35;;;;;;;15.93;2.83;;;27.30;92.20;;;;;;5043441;28;20021;-53
2021/04/15 01:15:44;;;;;;;9.82;2.50;;;27.20;92.20;;;;;;5043984;28;20393;-51
2021/04/15 01:18:21;;;;;;;15.57;2.38;;;27.20;92.20;;;;;;5021337;28;20042;-51
2021/04/15 01:21:38;;;;;;;7.13;2.00;;;27.20;92.20;;;;;;5080427;28;20133;-50
2021/04/15 01:24:10;;;;;;;10.43;2.38;;;27.10;91.90;;;;;;5057983;28;20343;-50
2021/04/15 01:27:00;;;;;;;7.40;2.00;;;27.10;91.90;;;;;;5067170;28;20251;-55
2021/04/15 01:29:47;;;;;;;6.57;1.65;;;27.00;91.90;;;;;;5056188;28;20095;-53
2021/04/15 01:32:31;;;;;;;5.72;2.17;;;27.00;92.10;;;;;;5068925;28;20312;-49
2021/04/15 01:35:14;;;;;;;4.70;1.42;;;26.90;92.10;;;;;;5069848;28;20031;-49
2021/04/15 01:37:55;;;;;;;6.97;1.58;;;26.90;92.00;;;;;;5069206;28;20020;-46
2021/04/15 01:40:33;;;;;;;6.78;1.40;;;26.80;92.00;;;;;;5092357;28;20016;-47
2021/04/15 01:43:33;;;;;;;3.17;1.10;;;26.80;92.10;;;;;;5096205;28;20081;-53
2021/04/15 01:46:02;;;;;;;2.85;1.10;;;26.80;92.00;;;;;;5078012;28;20300;-44
2021/04/15 01:48:47;;;;;;;5.55;1.75;;;26.80;92.00;;;;;;5097503;28;20030;-48
2021/04/15 01:51:43;;;;;;;3.58;1.10;;;26.80;92.00;;;;;;5094470;28;20031;-49
2021/04/15 01:54:21;;;;;;;2.38;0.93;;;26.80;92.00;;;;;;5067195;28;20023;-49
2021/04/15 01:57:09;;;;;;;2.17;0.70;;;26.80;92.10;;;;;;5097242;28;20019;-49
2021/04/15 01:59:45;;;;;;;2.58;0.52;;;26.80;92.00;;;;;;5094921;28;20044;-52
2021/04/15 02:02:17;;;;;;;1.40;0.35;;;26.80;92.10;;;;;;5086123;28;20024;-47
2021/04/15 02:04:53;;;;;;;4.38;1.17;;;26.80;92.10;;;;;;5087968;28;20032;-47
2021/04/15 02:07:24;;;;;;;3.38;0.90;;;26.80;92.20;;;;;;5095140;28;20061;-45
2021/04/15 02:09:54;;;;;;;3.92;1.20;;;26.80;92.20;;;;;;5082612;28;20028;-50
2021/04/15 02:12:28;;;;;;;3.65;1.00;;;26.80;92.50;;;;;;5095341;28;20023;-48
2021/04/15 02:15:11;;;;;;;2.92;0.63;;;26.70;92.50;;;;;;5076672;28;20024;-47
2021/04/15 02:17:41;;;;;;;3.40;0.80;;;26.70;92.40;;;;;;5094974;28;20036;-50
2021/04/15 02:20:18;;;;;;;2.13;0.75;;;26.80;92.50;;;;;;5077642;28;20115;-51
2021/04/15 02:23:04;;;;;;;2.88;1.10;;;26.80;92.50;;;;;;5077910;28;20020;-56
2021/04/15 02:25:37;;;;;;;2.90;0.80;;;26.70;92.50;;;;;;5094122;28;20023;-46
2021/04/15 02:28:17;;;;;;;1.77;0.70;;;26.70;92.50;;;;;;5095327;28;20228;-48
2021/04/15 02:30:49;;;;;;;1.83;0.60;;;26.80;92.60;;;;;;5093623;28;20035;-47
2021/04/15 02:33:39;;;;;;;1.50;0.52;;;26.70;92.40;;;;;;5078438;28;20024;-49
2021/04/15 02:36:07;;;;;;;5.40;3.53;;;26.80;92.50;;;;;;5078965;28;20091;-51
2021/04/15 02:38:50;;;;;;;3.53;1.90;;;26.70;92.50;;;;;;5075219;28;20209;-50
2021/04/15 02:41:21;;;;;;;3.55;1.88;;;26.70;92.60;;;;;;5093601;28;20032;-49
2021/04/15 02:44:00;;;;;;;7.03;5.63;;;26.70;92.50;;;;;;5085654;28;20153;-53
2021/04/15 02:46:29;;;;;;;6.03;2.67;;;26.70;92.70;;;;;;5085012;28;20021;-45
2021/04/15 02:49:01;;;;;;;12.40;10.75;;;26.70;92.60;;;;;;5085686;28;20075;-44
2021/04/15 02:51:32;;;;;;;19.63;15.45;;;26.70;92.70;;;;;;5085330;28;20028;-49
2021/04/15 02:54:08;;;;;;;21.73;17.42;;;26.70;92.80;;;;;;5085577;28;20056;-50
2021/04/15 02:56:46;;;;;;;11.82;9.63;;;26.70;92.80;;;;;;5068446;28;20029;-51
2021/04/15 02:59:34;;;;;;;23.45;20.25;;;26.70;92.80;;;;;;5085650;28;20024;-43
2021/04/15 03:02:09;;;;;;;27.90;23.08;;;26.70;92.80;;;;;;5085066;28;20016;-45
2021/04/15 03:04:39;;;;;;;14.98;12.00;;;26.70;92.80;;;;;;5085564;28;20298;-46
2021/04/15 03:07:06;;;;;;;13.27;10.57;;;26.70;92.90;;;;;;5085086;28;20020;-46
2021/04/15 03:09:39;;;;;;;14.45;10.40;;;26.60;92.80;;;;;;5067210;28;20329;-50
2021/04/15 03:12:09;;;;;;;;;;;26.70;92.80;;;;;;5085350;28;20020;-46
2021/04/15 03:15:02;;;;;;;8.82;5.88;;;26.60;92.70;;;;;;5084909;28;20096;-47
2021/04/15 03:17:30;;;;;;;;;;;26.60;92.70;;;;;;5085406;28;20170;-46
2021/04/15 03:20:01;;;;;;;5.20;3.60;;;26.60;92.70;;;;;;5085021;28;20132;-48
2021/04/15 03:22:53;;;;;;;5.07;3.08;;;26.60;92.70;;;;;;5084806;28;20024;-48
2021/04/15 03:25:20;;;;;;;4.40;2.45;;;26.60;92.80;;;;;;5084762;28;20118;-47
2021/04/15 03:28:16;;;;;;;7.95;2.30;;;26.60;92.70;;;;;;5084689;28;20059;-46
2021/04/15 03:30:56;;;;;;;3.92;2.13;;;26.60;92.70;;;;;;5084321;28;20023;-51
2021/04/15 03:33:45;;;;;;;2.45;1.38;;;26.60;92.80;;;;;;5084573;28;20028;-46
2021/04/15 03:36:39;;;;;;;2.38;1.10;;;26.60;92.80;;;;;;5076455;28;20036;-50
2021/04/15 03:39:18;;;;;;;4.60;0.90;;;26.60;92.80;;;;;;5078676;28;20036;-53
2021/04/15 03:41:49;;;;;;;2.05;0.60;;;26.60;92.80;;;;;;5084552;28;20047;-54
2021/04/15 03:44:15;;;;;;;0.80;0.55;;;26.60;92.80;;;;;;5084546;28;20036;-46
2021/04/15 03:46:51;;;;;;;1.55;0.60;;;26.60;92.70;;;;;;5084774;28;20020;-45
2021/04/15 03:49:25;;;;;;;1.52;0.47;;;26.60;92.80;;;;;;5084444;28;20021;-47
2021/04/15 03:52:04;;;;;;;2.30;0.50;;;26.60;92.80;;;;;;5084064;28;20089;-54
2021/04/15 03:54:44;;;;;;;1.80;0.70;;;26.60;92.70;;;;;;5083923;28;20080;-47
2021/04/15 03:57:19;;;;;;;1.75;0.73;;;26.50;92.80;;;;;;5083003;28;20030;-47
2021/04/15 04:00:04;;;;;;;1.73;0.60;;;26.50;92.70;;;;;;5084677;28;20028;-61
2021/04/15 04:02:45;;;;;;;2.15;0.52;;;26.60;92.80;;;;;;5084232;28;20031;-46
2021/04/15 04:05:22;;;;;;;2.45;0.77;;;26.60;92.80;;;;;;5084299;28;20329;-48
2021/04/15 04:07:52;;;;;;;3.05;1.20;;;26.50;92.70;;;;;;5084361;28;20017;-50
2021/04/15 04:10:28;;;;;;;1.48;0.80;;;26.50;92.70;;;;;;5084062;28;20341;-49
2021/04/15 04:13:21;;;;;;;3.03;0.55;;;26.50;92.80;;;;;;5084050;28;20047;-48
2021/04/15 04:16:08;;;;;;;1.25;0.70;;;26.50;92.70;;;;;;5084192;28;20340;-48
2021/04/15 04:19:03;;;;;;;2.15;0.70;;;26.50;92.60;;;;;;5083901;28;20054;-49
2021/04/15 04:21:42;;;;;;;1.83;0.40;;;26.50;92.70;;;;;;5083908;28;20216;-49
2021/04/15 04:24:24;;;;;;;1.73;0.47;;;26.50;92.70;;;;;;5084330;28;20173;-49
2021/04/15 04:27:10;;;;;;;3.17;0.55;;;26.50;92.70;;;;;;5083983;28;20249;-51
2021/04/15 04:29:48;;;;;;;3.33;0.80;;;26.40;92.70;;;;;;5084356;28;20087;-46
2021/04/15 04:32:19;;;;;;;3.78;2.40;;;26.50;92.60;;;;;;5083814;28;20013;-47
2021/04/15 04:34:51;;;;;;;3.78;1.92;;;26.50;92.70;;;;;;5084417;28;20073;-47
2021/04/15 04:37:18;;;;;;;;;;;26.40;92.60;;;;;;5084449;28;20047;-60
2021/04/15 04:39:45;;;;;;;4.32;2.78;;;26.40;92.60;;;;;;5066154;28;19908;-47
2021/04/15 04:42:22;;;;;;;8.48;3.50;;;26.40;92.60;;;;;;5083749;28;20040;-42
2021/04/15 04:44:55;;;;;;;3.58;2.08;;;26.40;92.70;;;;;;5084180;28;20032;-49
2021/04/15 04:47:44;;;;;;;3.95;1.60;;;26.40;92.60;;;;;;5083899;28;20017;-48
2021/04/15 04:50:38;;;;;;;2.95;1.30;;;26.40;92.70;;;;;;5083577;28;20051;-47
2021/04/15 04:53:09;;;;;;;1.13;0.90;;;26.40;92.80;;;;;;5083694;28;20031;-50
2021/04/15 04:55:48;;;;;;;3.20;0.88;;;26.40;92.80;;;;;;5083692;28;20013;-45
2021/04/15 04:58:19;;;;;;;2.80;0.90;;;26.40;92.80;;;;;;5083868;28;20085;-49
2021/04/15 05:00:51;;;;;;;3.25;0.55;;;26.30;92.70;;;;;;5083754;28;20027;-47
2021/04/15 05:03:23;;;;;;;0.82;0.43;;;26.30;92.80;;;;;;5087986;28;20024;-53
2021/04/15 05:05:58;;;;;;;2.30;0.50;;;26.30;92.80;;;;;;5087898;28;20024;-48
2021/04/15 05:08:29;;;;;;;1.02;0.30;;;26.30;92.80;;;;;;5087947;28;20028;-48
2021/04/15 05:10:57;;;;;;;1.63;0.43;;;26.30;92.90;;;;;;5087732;28;20024;-53
2021/04/15 05:13:29;;;;;;;2.20;0.40;;;26.30;92.90;;;;;;5087734;28;20024;-48
2021/04/15 05:16:01;;;;;;;1.23;0.40;;;26.30;92.90;;;;;;5087604;28;20029;-51
2021/04/15 05:18:28;;;;;;;0.98;0.30;;;26.30;92.80;;;;;;5087739;28;20038;-50
2021/04/15 05:21:02;;;;;;;1.77;0.20;;;26.20;92.80;;;;;;5087210;28;20098;-50
2021/04/15 05:23:40;;;;;;;2.88;0.20;;;26.20;92.90;;;;;;5087604;28;20052;-51
2021/04/15 05:26:26;;;;;;;3.65;0.28;;;26.20;92.90;;;;;;5087302;28;20017;-52
2021/04/15 05:28:57;;;;;;;0.55;0.15;;;26.20;92.90;;;;;;5087684;28;20088;-56
2021/04/15 05:31:28;;;;;;;1.88;0.20;;;26.20;92.80;;;;;;5087222;28;20325;-52
2021/04/15 05:33:57;;;;;;;1.50;0.30;;;26.20;92.70;;;;;;5087396;28;20039;-50
2021/04/15 05:36:32;;;;;;;2.75;0.13;;;26.20;92.80;;;;;;5087278;28;20313;-50
2021/04/15 05:39:03;;;;;;;2.92;0.38;;;26.20;92.80;;;;;;5087082;28;20060;-52
2021/04/15 05:41:32;;;;;;;3.05;0.30;;;26.20;92.80;;;;;;5087051;28;20055;-47
2021/04/15 05:44:22;;;;;;;2.47;0.40;;;26.20;92.80;;;;;;5087063;28;20048;-44
2021/04/15 05:46:51;;;;;;;2.00;0.30;;;26.20;92.80;;;;;;5087015;28;20017;-46
2021/04/15 05:49:42;;;;;;;1.90;0.30;;;26.20;92.80;;;;;;5087050;28;20368;-51
2021/04/15 05:52:32;;;;;;;0.30;0.20;;;26.20;92.80;;;;;;5086851;28;20213;-62
2021/04/15 05:55:15;;;;;;;1.45;0.40;;;26.20;92.80;;;;;;5087367;28;20032;-49
2021/04/15 05:57:49;;;;;;;0.85;0.28;;;26.20;92.80;;;;;;5086543;28;20035;-52
2021/04/15 06:00:44;;;;;;;1.65;0.32;;;26.20;92.70;;;;;;5086757;28;20016;-48
2021/04/15 06:03:49;;;;;;;1.08;0.20;;;26.20;92.60;;;;;;5086544;28;20041;-56
2021/04/15 06:06:37;;;;;;;1.40;0.10;;;26.20;92.60;;;;;;5082007;28;20102;-45
2021/04/15 06:09:06;;;;;;;0.93;0.22;;;26.20;92.60;;;;;;5087045;28;20047;-45
2021/04/15 06:12:02;;;;;;;0.75;0.28;;;26.20;92.60;;;;;;5086531;28;20092;-54
2021/04/15 06:14:56;;;;;;;4.47;0.40;;;26.20;92.60;;;;;;5086575;28;20029;-52
2021/04/15 06:17:35;;;;;;;2.25;0.40;;;26.10;92.60;;;;;;5086428;28;20016;-48
2021/04/15 06:20:07;;;;;;;2.05;0.20;;;26.10;92.60;;;;;;5086361;28;20058;-58
2021/04/15 06:22:44;;;;;;;0.95;0.10;;;26.10;92.60;;;;;;5086196;28;20028;-52
2021/04/15 06:25:21;;;;;;;1.23;0.20;;;26.10;92.80;;;;;;5086489;28;20025;-52
2021/04/15 06:27:49;;;;;;;0.52;0.10;;;26.10;92.60;;;;;;5086217;28;20070;-44
2021/04/15 06:30:26;;;;;;;0.95;0.30;;;26.20;92.60;;;;;;5086277;28;20035;-52
2021/04/15 06:32:55;;;;;;;2.28;0.30;;;26.10;92.50;;;;;;5086122;28;20020;-52
2021/04/15 06:35:27;;;;;;;1.33;0.10;;;26.10;92.50;;;;;;5085998;28;20016;-50
2021/04/15 06:38:14;;;;;;;1.27;0.10;;;26.10;92.60;;;;;;5086222;28;20039;-54
2021/04/15 06:41:17;;;;;;;1.67;0.10;;;26.10;92.60;;;;;;5035762;28;20032;-50
2021/04/15 06:44:11;;;;;;;2.10;0.20;;;26.10;92.50;;;;;;5085980;28;20028;-52
2021/04/15 06:47:02;;;;;;;2.15;0.40;;;26.10;92.50;;;;;;5085781;28;20025;-52
2021/04/15 06:50:25;;;;;;;1.80;0.22;;;26.10;92.50;;;;;;5086005;28;20024;-52
2021/04/15 06:53:29;;;;;;;1.25;0.20;;;26.00;92.50;;;;;;4985092;28;20022;-51
2021/04/15 06:56:18;;;;;;;2.88;0.30;;;26.00;92.50;;;;;;4984998;28;20019;-51
2021/04/15 06:58:56;;;;;;;1.80;0.20;;;26.00;92.40;;;;;;5085684;28;20048;-51
2021/04/15 07:01:27;;;;;;;4.93;0.30;;;26.00;92.40;;;;;;5085651;28;20023;-49
2021/04/15 07:04:05;;;;;;;2.30;0.20;;;26.00;92.40;;;;;;5085723;28;20178;-47
2021/04/15 07:06:48;;;;;;;3.42;0.20;;;26.00;92.40;;;;;;5085371;28;20047;-51
2021/04/15 07:09:27;;;;;;;2.05;0.20;;;26.00;92.30;;;;;;5085646;28;20126;-51
2021/04/15 07:11:54;;;;;;;3.65;0.20;;;26.00;92.20;;;;;;5085348;28;20023;-49
2021/04/15 07:14:35;;;;;;;7.97;0.30;;;26.00;92.20;;;;;;5085581;28;20031;-48
2021/04/15 07:17:20;;;;;;;3.13;0.30;;;26.00;92.20;;;;;;5085504;28;20370;-52
2021/04/15 07:20:14;;;;;;;2.30;0.40;;;26.00;92.10;;;;;;5085091;28;20075;-49
2021/04/15 07:22:55;;;;;;;1.10;0.40;;;26.00;92.10;;;;;;5084947;28;20023;-57
2021/04/15 07:25:38;;;;;;;1.67;0.30;;;26.00;92.00;;;;;;5084542;28;20048;-58
2021/04/15 07:28:43;;;;;;;0.65;0.15;;;26.00;92.00;;;;;;5085048;28;20044;-51
2021/04/15 07:31:19;;;;;;;1.23;0.22;;;26.00;92.00;;;;;;5084387;28;20032;-52
2021/04/15 07:34:13;;;;;;;5.20;0.57;;;25.90;91.90;;;;;;5085254;28;20301;-51
2021/04/15 07:36:51;;;;;;;1.58;0.30;;;25.90;91.90;;;;;;5084781;28;20025;-54
2021/04/15 07:39:55;;;;;;;4.82;0.38;;;26.00;91.90;;;;;;5085075;28;20039;-50
2021/04/15 07:42:29;;;;;;;2.35;0.30;;;25.90;91.90;;;;;;5084706;28;20051;-52
2021/04/15 07:45:14;;;;;;;3.05;0.30;;;25.90;91.90;;;;;;5085109;28;20025;-52
2021/04/15 07:48:08;;;;;;;1.40;0.25;;;25.90;91.90;;;;;;5084515;28;20057;-53
2021/04/15 07:51:11;;;;;;;3.10;0.35;;;25.90;91.80;;;;;;5084468;28;20012;-55
2021/04/15 07:53:57;;;;;;;2.28;0.30;;;25.90;91.70;;;;;;5084870;28;20025;-51
2021/04/15 07:56:44;;;;;;;2.05;0.30;;;25.90;91.70;;;;;;5084389;28;20279;-52
2021/04/15 07:59:41;;;;;;;3.70;0.30;;;25.90;91.60;;;;;;5084701;28;20059;-49
2021/04/15 08:02:32;;;;;;;5.53;0.47;;;25.90;91.50;;;;;;5084195;28;20074;-51
2021/04/15 08:05:36;;;;;;;1.98;0.35;;;25.90;91.50;;;;;;5084664;28;20024;-50
2021/04/15 08:08:21;;;;;;;2.75;0.20;;;25.90;91.50;;;;;;5084177;28;20092;-51
2021/04/15 08:11:26;;;;;;;3.50;0.30;;;25.90;91.60;;;;;;5084298;28;20078;-51
2021/04/15 08:14:11;;;;;;;1.35;0.20;;;25.90;91.80;;;;;;5046317;28;20037;-51
2021/04/15 08:16:55;;;;;;;4.72;0.40;;;25.80;91.60;;;;;;5083915;28;20016;-53
2021/04/15 08:19:58;;;;;;;3.58;0.32;;;25.80;91.70;;;;;;5084053;28;20071;-51
2021/04/15 08:23:02;;;;;;;2.28;0.40;;;25.80;91.70;;;;;;5084297;28;20028;-54
2021/04/15 08:26:05;;;;;;;3.45;0.40;;;25.90;91.70;;;;;;5083883;28;20206;-46
2021/04/15 08:29:00;;;;;;;4.22;0.30;;;25.80;91.70;;;;;;5084192;28;20021;-51
2021/04/15 08:31:48;;;;;;;5.22;0.30;;;25.80;91.70;;;;;;5083822;28;20091;-53
2021/04/15 08:34:36;;;;;;;4.57;0.40;;;25.80;91.70;;;;;;5084169;28;20065;-50
2021/04/15 08:37:27;;;;;;;4.60;0.43;;;25.80;91.70;;;;;;5082909;28;20332;-52
2021/04/15 08:40:18;;;;;;;1.58;0.30;;;25.80;91.70;;;;;;5084179;28;20317;-48
2021/04/15 08:43:06;;;;;;;2.45;0.30;;;25.80;91.70;;;;;;5083493;28;20020;-55
2021/04/15 08:45:36;;;;;;;4.15;0.40;;;25.80;91.70;;;;;;5083743;28;20018;-51
2021/04/15 08:48:08;;;;;;;2.75;0.40;;;25.80;91.60;;;;;;5083520;28;20025;-52
2021/04/15 08:50:58;;;;;;;3.00;0.25;;;25.80;91.50;;;;;;5083682;28;20094;-54
2021/04/15 08:54:05;;;;;;;3.78;0.47;;;25.80;91.60;;;;;;5083426;28;20117;-50
2021/04/15 08:56:43;;;;;;;0.65;0.22;;;25.80;91.50;;;;;;5083493;28;20024;-47
2021/04/15 08:59:46;;;;;;;3.03;0.32;;;25.80;91.50;;;;;;5083963;28;20138;-50
2021/04/15 09:02:50;;;;;;;4.40;0.20;;;25.80;91.40;;;;;;5083574;28;20115;-52
2021/04/15 09:05:55;;;;;;;2.08;0.30;;;25.80;91.30;;;;;;5083510;28;20025;-56
2021/04/15 09:08:39;;;;;;;1.83;0.30;;;25.70;91.30;;;;;;5066280;28;20040;-60
2021/04/15 09:11:19;;;;;;;2.67;0.63;;;25.70;91.30;;;;;;5083573;28;20024;-51
2021/04/15 09:14:03;;;;;;;0.80;0.20;;;25.70;91.30;;;;;;5083735;28;20024;-52
2021/04/15 09:16:37;;;;;;;2.15;0.30;;;25.70;91.30;;;;;;5083301;28;20030;-51
2021/04/15 09:19:16;;;;;;;0.80;0.22;;;25.70;91.20;;;;;;5083352;28;20348;-50
2021/04/15 09:22:01;;;;;;;1.33;0.40;;;25.70;91.30;;;;;;5083094;28;20317;-55
2021/04/15 09:24:42;;;;;;;4.07;0.40;;;25.70;91.40;;;;;;5083618;28;20032;-50
2021/04/15 09:27:23;;;;;;;4.00;0.30;;;25.70;91.50;;;;;;5083122;28;20084;-46
2021/04/15 09:30:08;;;;;;;4.05;0.38;;;25.70;91.50;;;;;;5083651;28;20017;-53
2021/04/15 09:32:56;;;;;;;4.57;0.45;;;25.70;91.60;;;;;;5083220;28;20028;-55
2021/04/15 09:35:35;;;;;;;1.00;0.20;;;25.70;91.70;;;;;;5083068;28;20028;-50
2021/04/15 09:38:12;;;;;;;2.88;0.52;;;25.70;91.80;;;;;;5083387;28;20122;-50
2021/04/15 09:41:02;;;;;;;5.28;0.40;;;25.70;91.90;;;;;;5082869;28;20086;-47
2021/04/15 09:43:43;;;;;;;2.47;0.50;;;25.70;92.00;;;;;;5083246;28;20017;-52
2021/04/15 09:46:17;;;;;;;6.75;0.43;;;25.60;92.10;;;;;;5083024;28;20031;-55
2021/04/15 09:48:59;;;;;;;2.63;0.40;;;25.60;92.20;;;;;;5086701;28;20244;-55
2021/04/15 09:51:41;;;;;;;4.13;0.40;;;25.60;92.20;;;;;;5087158;28;20303;-54
2021/04/15 09:54:29;;;;;;;5.75;0.57;;;25.60;92.20;;;;;;5086791;28;20056;-52
2021/04/15 09:57:25;;;;;;;3.63;0.75;;;25.60;92.10;;;;;;5071781;28;20033;-51
2021/04/15 10:00:21;;;;;;;4.82;0.40;;;25.60;92.30;;;;;;5087099;28;20021;-53
2021/04/15 10:03:00;;;;;;;6.70;0.70;;;25.60;92.30;;;;;;5086243;28;20024;-51
2021/04/15 10:05:48;;;;;;;2.58;0.63;;;25.60;92.40;;;;;;5086515;28;20052;-54
2021/04/15 10:08:46;;;;;;;3.35;0.30;;;25.60;92.50;;;;;;5086447;28;20017;-58
2021/04/15 10:11:34;;;;;;;2.65;0.47;;;25.60;92.40;;;;;;5086286;28;20050;-54
2021/04/15 10:14:15;;;;;;;4.85;0.82;;;25.60;92.20;;;;;;5086627;28;20099;-52
2021/04/15 10:16:42;;;;;;;1.70;0.40;;;25.60;92.20;;;;;;5086179;28;20025;-56
2021/04/15 10:19:41;;;;;;;4.15;0.60;;;25.60;92.10;;;;;;5086321;28;20256;-51
2021/04/15 10:22:30;;;;;;;6.45;0.57;;;25.60;91.90;;;;;;5086396;28;20039;-52
2021/04/15 10:25:23;;;;;;;5.85;0.80;;;25.60;91.80;;;;;;5040028;28;20044;-55
2021/04/15 10:28:08;;;;;;;6.93;0.90;;;25.60;91.80;;;;;;5086207;28;20297;-52
2021/04/15 10:30:50;;;;;;;6.22;0.70;;;25.60;91.90;;;;;;5085947;28;20027;-53
2021/04/15 10:33:32;;;;;;;3.60;0.65;;;25.60;91.90;;;;;;5086090;28;20020;-47
2021/04/15 10:36:22;;;;;;;11.40;0.70;;;25.60;92.00;;;;;;5085910;28;20095;-51
2021/04/15 10:39:15;;;;;;;3.47;0.50;;;25.50;92.10;;;;;;5085787;28;20209;-55
2021/04/15 10:42:00;;;;;;;5.25;0.50;;;25.50;92.20;;;;;;5085757;28;20375;-57
2021/04/15 10:44:56;;;;;;;3.63;0.52;;;25.50;92.20;;;;;;5086354;28;20059;-52
2021/04/15 10:47:44;;;;;;;4.53;0.70;;;25.50;92.30;;;;;;5085907;28;20087;-51
2021/04/15 10:50:34;;;;;;;3.80;0.50;;;25.50;92.30;;;;;;5085722;28;20048;-51
2021/04/15 10:53:04;;;;;;;5.35;0.40;;;25.50;92.40;;;;;;5096842;28;20023;-50
2021/04/15 10:55:34;;;;;;;10.30;0.55;;;25.50;92.40;;;;;;5105667;28;20012;-50
2021/04/15 10:58:37;;;;;;;4.65;0.90;;;25.50;92.50;;;;;;5105998;28;20032;-56
2021/04/15 11:01:30;;;;;;;7.07;0.75;;;25.50;92.50;;;;;;5100867;28;20320;-51
2021/04/15 11:04:00;;;;;;;6.97;1.50;;;25.50;92.60;;;;;;5101629;28;20043;-57
2021/04/15 11:06:44;;;;;;;6.70;1.00;;;25.50;92.60;;;;;;5105803;28;20075;-54
2021/04/15 11:09:20;;;;;;;8.93;1.00;;;25.50;92.70;;;;;;5105832;28;20376;-50
2021/04/15 11:12:13;;;;;;;9.77;1.17;;;25.50;92.80;;;;;;5105554;28;20128;-50
2021/04/15 11:14:55;;;;;;;;;;;25.50;92.70;;;;;;5095680;28;20063;-56
2021/04/15 11:17:30;;;;;;;8.67;0.80;;;25.50;92.70;;;;;;5105511;28;19900;-50
2021/04/15 11:20:15;;;;;;;9.32;1.02;;;25.50;92.80;;;;;;5105527;28;20048;-55
2021/04/15 11:22:58;;;;;;;11.82;0.90;;;25.50;92.80;;;;;;5105161;28;20016;-57
2021/04/15 11:25:25;;;;;;;5.80;0.52;;;25.50;92.70;;;;;;5105546;28;20016;-49
2021/04/15 11:27:52;;;;;;;5.80;0.77;;;25.50;92.90;;;;;;5105400;28;20016;-44
2021/04/15 11:30:52;;;;;;;5.68;0.63;;;25.50;92.90;;;;;;5105413;28;20012;-43
2021/04/15 11:33:43;;;;;;;2.47;0.60;;;25.50;93.00;;;;;;5105186;28;20034;-45
2021/04/15 11:36:17;;;;;;;4.65;0.40;;;25.40;92.90;;;;;;5105109;28;20116;-49
2021/04/15 11:38:46;;;;;;;5.05;0.38;;;25.50;93.00;;;;;;5104876;28;20031;-47
2021/04/15 11:41:23;;;;;;;3.95;0.60;;;25.50;93.00;;;;;;5104978;28;20049;-52
2021/04/15 11:44:05;;;;;;;5.53;0.60;;;25.50;92.90;;;;;;5104860;28;20095;-57
2021/04/15 11:47:05;;;;;;;2.95;0.40;;;25.50;93.20;;;;;;5105008;28;20043;-46
2021/04/15 11:49:43;;;;;;;3.95;0.50;;;25.50;92.90;;;;;;5105317;28;20024;-51
2021/04/15 11:52:12;;;;;;;4.60;0.55;;;25.50;92.90;;;;;;5104593;28;20022;-51
2021/04/15 11:54:53;;;;;;;3.95;0.50;;;25.60;93.00;;;;;;5105158;28;20216;-56
2021/04/15 11:57:19;;;;;;;7.10;0.73;;;25.60;92.90;;;;;;5104611;28;20244;-48
2021/04/15 12:00:05;;;;;;;5.22;0.40;;;25.60;92.90;;;;;;5105023;28;20032;-47
2021/04/15 12:02:39;;;;;;;4.28;0.55;;;25.60;93.00;;;;;;5104608;28;20091;-50
2021/04/15 12:05:08;;;;;;;3.90;0.73;;;25.60;93.00;;;;;;5104685;28;20542;-46
2021/04/15 12:07:36;;;;;;;5.35;1.10;;;25.60;93.00;;;;;;5104763;28;20083;-45
2021/04/15 12:10:04;;;;;;;3.88;0.70;;;25.70;93.00;;;;;;5104852;28;20028;-50
2021/04/15 12:12:32;;;;;;;4.60;0.93;;;25.70;93.00;;;;;;5104466;28;20020;-50
2021/04/15 12:15:00;;;;;;;24.98;10.13;;;25.70;93.00;;;;;;5105153;28;20024;-52
2021/04/15 12:17:48;;;;;;;31.98;16.25;;;25.70;93.00;;;;;;5104309;28;20438;-44
2021/04/15 12:20:40;;;;;;;30.70;15.32;;;25.80;93.10;;;;;;5104307;28;20047;-48
2021/04/15 12:23:18;;;;;;;75.65;22.23;;;25.80;93.10;;;;;;5057510;28;20085;-54
2021/04/15 12:25:49;;;;;;;44.05;17.67;;;25.80;93.20;;;;;;5104436;28;20039;-51
2021/04/15 12:28:29;;;;;;;54.90;22.70;;;25.80;93.20;;;;;;5104193;28;20039;-53
2021/04/15 12:31:39;;;;;;;70.88;29.63;;;25.80;93.10;;;;;;5104229;28;20173;-53
2021/04/15 12:34:14;;;;;;;51.75;30.13;;;25.80;93.10;;;;;;5039402;28;20032;-53
2021/04/15 12:36:51;;;;;;;45.72;23.45;;;25.90;93.10;;;;;;5103930;28;20151;-54
2021/04/15 12:39:25;;;;;;;33.95;15.82;;;25.90;93.10;;;;;;5087656;28;20028;-53
2021/04/15 12:41:52;;;;;;;30.65;15.77;;;25.90;93.10;;;;;;5103984;28;20012;-44
2021/04/15 12:44:29;;;;;;;26.20;11.18;;;26.00;93.20;;;;;;5103774;28;20054;-53
2021/04/15 12:46:59;;;;;;;24.95;10.70;;;26.00;93.10;;;;;;5103853;28;20245;-46
2021/04/15 12:49:36;;;;;;;18.40;7.55;;;26.00;93.00;;;;;;5104365;28;20028;-50
2021/04/15 12:52:12;;;;;;;32.85;16.02;;;26.00;93.00;;;;;;5103947;28;20212;-49
2021/04/15 12:54:41;;;;;;;20.23;6.50;;;26.10;93.00;;;;;;5104310;28;20031;-47
2021/04/15 12:57:13;;;;;;;13.93;6.20;;;26.10;93.00;;;;;;5103799;28;20024;-55
2021/04/15 12:59:49;;;;;;;20.42;6.13;;;26.10;92.90;;;;;;5104069;28;20032;-49
2021/04/15 13:02:32;;;;;;;28.17;5.47;;;26.20;92.90;;;;;;5085736;28;20024;-46
2021/04/15 13:05:06;;;;;;;;;;;26.30;93.00;;;;;;5104614;28;20197;-48
2021/04/15 13:07:37;;;;;;;8.23;1.75;;;26.30;93.10;;;;;;5104518;28;19900;-48
2021/04/15 13:10:18;;;;;;;6.85;1.90;;;26.40;93.00;;;;;;5085885;28;20031;-54
2021/04/15 13:12:47;;;;;;;5.22;1.77;;;26.40;92.80;;;;;;5103877;28;20339;-52
2021/04/15 13:15:26;;;;;;;6.57;1.60;;;26.40;92.80;;;;;;5103718;28;20114;-53
2021/04/15 13:17:54;;;;;;;5.55;1.27;;;26.40;92.70;;;;;;5085635;28;20016;-48
2021/04/15 13:20:21;;;;;;;4.38;1.65;;;26.50;92.70;;;;;;5103556;28;20059;-58
2021/04/15 13:22:56;;;;;;;4.13;1.73;;;26.60;92.70;;;;;;5105278;28;20016;-47
2021/04/15 13:25:26;;;;;;;6.57;1.10;;;26.60;92.60;;;;;;5107833;28;20320;-47
2021/04/15 13:28:00;;;;;;;7.38;1.50;;;26.70;92.40;;;;;;5107703;28;20122;-50
2021/04/15 13:30:41;;;;;;;5.47;1.73;;;26.70;92.40;;;;;;5107576;28;20043;-47
2021/04/15 13:33:17;;;;;;;2.57;1.30;;;26.80;92.50;;;;;;5091225;28;20023;-46
2021/04/15 13:35:55;;;;;;;6.40;1.13;;;26.90;92.30;;;;;;5089749;28;20246;-45
2021/04/15 13:38:28;;;;;;;2.65;1.05;;;26.90;92.20;;;;;;5107503;28;20020;-45
2021/04/15 13:40:55;;;;;;;;;;;26.90;92.40;;;;;;5107721;28;20360;-44
2021/04/15 13:43:46;;;;;;;5.78;0.73;;;27.00;92.20;;;;;;5107294;28;19945;-56
2021/04/15 13:46:25;;;;;;;3.22;0.85;;;27.10;92.20;;;;;;5089976;28;20024;-54
2021/04/15 13:49:02;;;;;;;5.15;1.00;;;27.20;92.30;;;;;;5089473;28;20418;-52
2021/04/15 13:51:39;;;;;;;5.05;1.27;;;27.20;92.20;;;;;;5107296;28;20083;-48
2021/04/15 13:54:06;;;;;;;3.53;1.10;;;27.20;92.00;;;;;;5107787;28;20039;-46